Terminal Aerodrome Forecast
Issued by NWS Jacksonville, FL

Home | Current Version | Previous Version | Text Only | Print | Product List | Glossary On
Versions: 1 2 3 4 5 6 7 8 9 10 11 12 13 14 15
000
FTUS42 KJAX 311906 AAB
TAFJAX
TAF AMD
KJAX 311906Z 3119/0118 28006KT P6SM VCTS SCT040CB SCT120
      TEMPO 3119/3121 VRB12G22KT 4SM -TSRA BKN035CB
     FM312100 10008KT P6SM VCTS SCT050CB SCT120
     FM010200 VRB03KT P6SM FEW050 SCT100
     FM011400 28006KT P6SM SCT030=

USA.gov is the U.S. government's official web portal to all federal, state and local government web resources and services.